Time;durP1;ratioP1;P1;durP2;ratioP2;P2;SDS_P1;SDS_P2;PMS_P1;PMS_P2;Temp;Humidity;BMP_temperature;BMP_pressure;BME280_temperature;BME280_humidity;BME280_pressure;Samples;Min_cycle;Max_cycle;Signal;HPM_P1;HPM_P2
2022/04/12 00:01:23;;;;;;;14.63;10.68;;;;;;;;;;5053804;28;19920;-70
2022/04/12 00:03:50;;;;;;;15.90;10.85;;;;;;;;;;5048940;28;20049;-70
2022/04/12 00:06:16;;;;;;;13.30;11.40;;;;;;;;;;5044184;28;20053;-70
2022/04/12 00:08:43;;;;;;;17.80;11.10;;;;;;;;;;5053706;28;20099;-70
2022/04/12 00:11:09;;;;;;;14.50;10.65;;;;;;;;;;5053746;28;20084;-70
2022/04/12 00:13:36;;;;;;;32.90;18.77;;;;;;;;;;5053751;28;20052;-70
2022/04/12 00:16:03;;;;;;;38.38;20.30;;;;;;;;;;5053989;28;20060;-69
2022/04/12 00:21:15;;;;;;;61.10;30.25;;;;;;;;;;5053462;28;20383;-70
2022/04/12 00:23:41;;;;;;;47.05;22.90;;;;;;;;;;5053398;28;20438;-70
2022/04/12 00:26:08;;;;;;;36.55;21.02;;;;;;;;;;5053483;28;20068;-70
2022/04/12 00:28:34;;;;;;;25.23;15.32;;;;;;;;;;5053392;28;20118;-70
2022/04/12 00:31:01;;;;;;;25.38;13.52;;;;;;;;;;5052109;28;20084;-70
2022/04/12 00:33:28;;;;;;;18.45;12.60;;;;;;;;;;5053090;28;20501;-70
2022/04/12 00:35:58;;;;;;;15.15;11.70;;;;;;;;;;5052995;28;20083;-70
2022/04/12 00:38:25;;;;;;;22.05;12.35;;;;;;;;;;5052974;28;20055;-70
2022/04/12 00:40:53;;;;;;;55.67;20.55;;;;;;;;;;5052814;28;20500;-69
2022/04/12 00:43:21;;;;;;;67.78;29.23;;;;;;;;;;5053077;28;20458;-70
2022/04/12 00:45:47;;;;;;;87.83;34.60;;;;;;;;;;5052618;28;20095;-70
2022/04/12 00:48:13;;;;;;;22.13;13.77;;;;;;;;;;5053693;28;20313;-69
2022/04/12 00:50:41;;;;;;;25.48;14.05;;;;;;;;;;5051786;28;20140;-70
2022/04/12 00:53:10;;;;;;;24.93;13.83;;;;;;;;;;5052905;28;20087;-70
2022/04/12 00:55:37;;;;;;;16.08;12.13;;;;;;;;;;5052908;28;20282;-70
2022/04/12 00:58:06;;;;;;;17.60;11.50;;;;;;;;;;5052580;28;20084;-70
2022/04/12 01:00:34;;;;;;;13.68;12.23;;;;;;;;;;5052455;28;20049;-70
2022/04/12 01:03:00;;;;;;;;;;;;;;;;;;5053261;28;20044;-69
2022/04/12 01:05:27;;;;;;;17.70;12.25;;;;;;;;;;5037407;28;19990;-70
2022/04/12 01:07:54;;;;;;;13.95;11.63;;;;;;;;;;5052655;28;20049;-69
2022/04/12 01:10:22;;;;;;;15.30;11.60;;;;;;;;;;5052325;28;20052;-70
2022/04/12 01:12:50;;;;;;;16.88;11.77;;;;;;;;;;5051359;28;20091;-69
2022/04/12 01:15:18;;;;;;;14.45;12.30;;;;;;;;;;5052551;28;20052;-69
2022/04/12 01:17:45;;;;;;;;;;;;;;;;;;5052682;28;20049;-69
2022/04/12 01:20:12;;;;;;;15.48;11.82;;;;;;;;;;5052117;28;19966;-69
2022/04/12 01:23:02;;;;;;;16.30;12.10;;;;;;;;;;5052123;28;20080;-69
2022/04/12 01:25:28;;;;;;;14.50;11.68;;;;;;;;;;5041182;28;20483;-69
2022/04/12 01:27:55;;;;;;;16.83;11.98;;;;;;;;;;5051178;28;20140;-69
2022/04/12 01:30:21;;;;;;;14.25;11.88;;;;;;;;;;5052266;28;20072;-69
2022/04/12 01:32:48;;;;;;;15.48;12.40;;;;;;;;;;5052131;28;20053;-69
2022/04/12 01:35:14;;;;;;;16.77;12.63;;;;;;;;;;5051913;28;20057;-69
2022/04/12 01:37:41;;;;;;;15.25;12.15;;;;;;;;;;5045257;28;20527;-69
2022/04/12 01:40:09;;;;;;;18.95;13.63;;;;;;;;;;5052125;28;20098;-70
2022/04/12 01:42:39;;;;;;;19.67;12.75;;;;;;;;;;5050766;28;20094;-69
2022/04/12 01:45:06;;;;;;;16.65;12.02;;;;;;;;;;5051456;28;20132;-69
2022/04/12 01:47:32;;;;;;;159.27;59.83;;;;;;;;;;5050583;28;20570;-69
2022/04/12 01:49:59;;;;;;;40.20;19.48;;;;;;;;;;5051865;28;20045;-69
2022/04/12 01:52:25;;;;;;;27.90;15.30;;;;;;;;;;5051797;28;20083;-69
2022/04/12 01:54:52;;;;;;;32.85;17.67;;;;;;;;;;5051693;28;20077;-69
2022/04/12 01:57:18;;;;;;;63.85;31.17;;;;;;;;;;5051817;28;20045;-69
2022/04/12 01:59:45;;;;;;;40.40;21.13;;;;;;;;;;5051841;28;20087;-70
2022/04/12 02:02:11;;;;;;;35.85;22.00;;;;;;;;;;5051664;28;20502;-69
2022/04/12 02:04:38;;;;;;;40.78;20.25;;;;;;;;;;5048584;28;20049;-69
2022/04/12 02:07:05;;;;;;;32.55;18.85;;;;;;;;;;5051420;28;20079;-69
2022/04/12 02:09:31;;;;;;;31.58;18.77;;;;;;;;;;5050514;28;20136;-69
2022/04/12 02:11:58;;;;;;;27.83;17.60;;;;;;;;;;5051627;28;20085;-69
2022/04/12 02:14:25;;;;;;;38.00;18.95;;;;;;;;;;5051432;28;20099;-69
2022/04/12 02:16:51;;;;;;;27.40;16.83;;;;;;;;;;5051729;28;20053;-69
2022/04/12 02:19:17;;;;;;;24.63;16.65;;;;;;;;;;5050364;28;20489;-69
2022/04/12 02:21:44;;;;;;;27.80;16.83;;;;;;;;;;5051836;28;20119;-69
2022/04/12 02:24:10;;;;;;;26.83;16.63;;;;;;;;;;5051345;28;20519;-69
2022/04/12 02:26:37;;;;;;;24.40;15.15;;;;;;;;;;5051605;28;20128;-69
2022/04/12 02:29:03;;;;;;;23.75;16.20;;;;;;;;;;5052006;28;20500;-69
2022/04/12 02:31:33;;;;;;;18.30;13.75;;;;;;;;;;5055275;28;20527;-70
2022/04/12 02:34:00;;;;;;;17.65;13.73;;;;;;;;;;5055577;28;20059;-69
2022/04/12 02:36:26;;;;;;;20.42;14.43;;;;;;;;;;5055162;28;20084;-70
2022/04/12 02:38:53;;;;;;;18.95;14.05;;;;;;;;;;5055285;28;20132;-70
2022/04/12 02:41:19;;;;;;;18.88;13.52;;;;;;;;;;5055323;28;20045;-70
2022/04/12 02:43:46;;;;;;;16.80;13.35;;;;;;;;;;5055361;28;20468;-70
2022/04/12 02:46:12;;;;;;;16.83;13.02;;;;;;;;;;5054850;28;20053;-70
2022/04/12 02:48:38;;;;;;;15.02;12.65;;;;;;;;;;5054083;28;20472;-70
2022/04/12 02:51:05;;;;;;;15.77;12.38;;;;;;;;;;5055516;28;20073;-70
2022/04/12 02:53:32;;;;;;;13.93;12.07;;;;;;;;;;5054903;28;20485;-70
2022/04/12 02:55:58;;;;;;;16.38;11.90;;;;;;;;;;5055138;28;20123;-70
2022/04/12 02:58:25;;;;;;;19.50;13.10;;;;;;;;;;5055114;28;20103;-69
2022/04/12 03:00:51;;;;;;;21.20;13.98;;;;;;;;;;5054795;28;20072;-70
2022/04/12 03:03:18;;;;;;;78.00;36.70;;;;;;;;;;5053408;28;20052;-69
2022/04/12 03:05:44;;;;;;;94.88;40.55;;;;;;;;;;5054794;28;20128;-69
2022/04/12 03:08:11;;;;;;;108.50;49.03;;;;;;;;;;5054897;28;20072;-70
2022/04/12 03:10:37;;;;;;;69.20;33.42;;;;;;;;;;5054789;28;20041;-70
2022/04/12 03:13:03;;;;;;;39.42;20.92;;;;;;;;;;5054808;28;20080;-70
2022/04/12 03:15:30;;;;;;;35.35;19.33;;;;;;;;;;5054600;28;20049;-70
2022/04/12 03:17:56;;;;;;;32.25;19.15;;;;;;;;;;5054741;28;20060;-70
2022/04/12 03:20:23;;;;;;;29.40;18.20;;;;;;;;;;5054348;28;20524;-70
2022/04/12 03:22:49;;;;;;;18.90;14.82;;;;;;;;;;5054272;28;20095;-69
2022/04/12 03:25:16;;;;;;;15.23;12.43;;;;;;;;;;5054400;28;20072;-70
2022/04/12 03:27:42;;;;;;;15.38;12.55;;;;;;;;;;5053360;28;20083;-69
2022/04/12 03:30:09;;;;;;;14.43;12.27;;;;;;;;;;5054591;28;20053;-69
2022/04/12 03:32:35;;;;;;;17.95;12.23;;;;;;;;;;5052963;28;20144;-70
2022/04/12 03:35:02;;;;;;;16.33;12.20;;;;;;;;;;5054460;28;20081;-70
2022/04/12 03:37:28;;;;;;;13.73;12.02;;;;;;;;;;5054071;28;20102;-70
2022/04/12 03:39:55;;;;;;;17.42;12.70;;;;;;;;;;5054006;28;20523;-69
2022/04/12 03:42:22;;;;;;;16.25;12.25;;;;;;;;;;5054164;28;20106;-69
2022/04/12 03:44:48;;;;;;;14.60;12.52;;;;;;;;;;5054102;28;20094;-69
2022/04/12 03:47:15;;;;;;;13.40;11.85;;;;;;;;;;5053924;28;20080;-69
2022/04/12 03:49:42;;;;;;;13.23;11.82;;;;;;;;;;5054191;28;20114;-70
2022/04/12 03:52:09;;;;;;;15.43;12.18;;;;;;;;;;5053680;28;20558;-69
2022/04/12 03:54:36;;;;;;;15.45;12.75;;;;;;;;;;5053848;28;20081;-70
2022/04/12 03:57:02;;;;;;;15.52;13.30;;;;;;;;;;5053662;28;20492;-69
2022/04/12 03:59:29;;;;;;;35.13;20.50;;;;;;;;;;5053748;28;20539;-69
2022/04/12 04:01:55;;;;;;;14.15;11.85;;;;;;;;;;5053812;28;20080;-69
2022/04/12 04:04:22;;;;;;;17.55;13.00;;;;;;;;;;5053153;28;20047;-69
2022/04/12 04:06:48;;;;;;;16.90;13.80;;;;;;;;;;5052284;28;20132;-70
2022/04/12 04:09:15;;;;;;;15.93;13.18;;;;;;;;;;5053752;28;20552;-70
2022/04/12 04:11:42;;;;;;;17.40;14.15;;;;;;;;;;5053785;28;20098;-70
2022/04/12 04:14:13;;;;;;;17.58;15.52;;;;;;;;;;5053535;28;20085;-71
2022/04/12 04:16:39;;;;;;;18.95;14.27;;;;;;;;;;5053765;28;20134;-70
2022/04/12 04:19:08;;;;;;;21.20;14.98;;;;;;;;;;5051993;28;20055;-71
2022/04/12 04:21:38;;;;;;;19.77;15.63;;;;;;;;;;5053317;28;20531;-71
2022/04/12 04:24:04;;;;;;;19.52;14.55;;;;;;;;;;5053449;28;20103;-71
2022/04/12 04:26:31;;;;;;;16.02;14.25;;;;;;;;;;5053208;28;20593;-71
2022/04/12 04:28:58;;;;;;;21.02;14.05;;;;;;;;;;5053547;28;20076;-71
2022/04/12 04:31:24;;;;;;;16.88;14.38;;;;;;;;;;5052119;28;20076;-72
2022/04/12 04:33:55;;;;;;;17.85;15.65;;;;;;;;;;5053408;28;20166;-72
2022/04/12 04:36:22;;;;;;;19.55;15.27;;;;;;;;;;5052987;28;20136;-72
2022/04/12 04:38:48;;;;;;;19.30;15.25;;;;;;;;;;5053268;28;20094;-71
2022/04/12 04:41:15;;;;;;;21.48;15.80;;;;;;;;;;5053169;28;20044;-71
2022/04/12 04:43:45;;;;;;;21.15;15.55;;;;;;;;;;5052940;28;20163;-72
2022/04/12 04:46:13;;;;;;;20.08;16.20;;;;;;;;;;5052778;28;20064;-71
2022/04/12 04:48:41;;;;;;;19.23;15.82;;;;;;;;;;5053091;28;20103;-71
2022/04/12 04:51:07;;;;;;;;;;;;;;;;;;5052862;28;20080;-72
2022/04/12 04:53:37;;;;;;;22.13;15.03;;;;;;;;;;5051790;28;19932;-72
2022/04/12 04:56:04;;;;;;;22.73;16.85;;;;;;;;;;5052643;28;20566;-72
2022/04/12 04:58:30;;;;;;;19.55;15.65;;;;;;;;;;5052580;28;20084;-72
2022/04/12 05:00:57;;;;;;;18.20;15.60;;;;;;;;;;5052490;28;20080;-72
2022/04/12 05:03:23;;;;;;;21.48;15.38;;;;;;;;;;5051588;28;20469;-72
2022/04/12 05:05:50;;;;;;;21.80;16.67;;;;;;;;;;5052726;28;20086;-71
2022/04/12 05:08:16;;;;;;;23.80;17.17;;;;;;;;;;5052357;28;20091;-71
2022/04/12 05:10:43;;;;;;;19.13;16.08;;;;;;;;;;5052419;28;20476;-72
2022/04/12 05:13:09;;;;;;;19.02;15.73;;;;;;;;;;5052414;28;20088;-71
2022/04/12 05:15:36;;;;;;;20.33;16.98;;;;;;;;;;5052718;28;20114;-71
2022/04/12 05:18:02;;;;;;;21.45;16.50;;;;;;;;;;5052234;28;20571;-72
2022/04/12 05:20:29;;;;;;;21.70;17.65;;;;;;;;;;5050861;28;20084;-72
2022/04/12 05:22:55;;;;;;;21.42;18.25;;;;;;;;;;5052369;28;20084;-72
2022/04/12 05:25:22;;;;;;;20.80;17.65;;;;;;;;;;5052193;28;20456;-72
2022/04/12 05:27:49;;;;;;;21.58;18.70;;;;;;;;;;5052132;28;20099;-72
2022/04/12 05:30:16;;;;;;;25.88;19.27;;;;;;;;;;5052389;28;20440;-71
2022/04/12 05:32:43;;;;;;;25.00;20.23;;;;;;;;;;5052202;28;20048;-71
2022/04/12 05:35:10;;;;;;;23.92;19.42;;;;;;;;;;5052293;28;20049;-71
2022/04/12 05:37:40;;;;;;;23.50;18.73;;;;;;;;;;5052243;28;20056;-72
2022/04/12 05:40:09;;;;;;;23.27;17.88;;;;;;;;;;5051933;28;20084;-71
2022/04/12 05:42:35;;;;;;;25.35;18.27;;;;;;;;;;5051997;28;20454;-72
2022/04/12 05:45:02;;;;;;;22.15;17.40;;;;;;;;;;5052019;28;20072;-72
2022/04/12 05:47:28;;;;;;;22.40;18.02;;;;;;;;;;5051791;28;20106;-72
2022/04/12 05:49:55;;;;;;;21.10;17.17;;;;;;;;;;5051903;28;20122;-72
2022/04/12 05:52:21;;;;;;;20.20;16.92;;;;;;;;;;5052029;28;20085;-72
2022/04/12 05:54:47;;;;;;;21.17;17.02;;;;;;;;;;5052134;28;20136;-72
2022/04/12 05:57:14;;;;;;;20.55;16.23;;;;;;;;;;5051534;28;20487;-72
2022/04/12 05:59:45;;;;;;;20.60;15.95;;;;;;;;;;5051938;28;20135;-72
2022/04/12 06:02:11;;;;;;;19.77;16.70;;;;;;;;;;5051484;28;20512;-72
2022/04/12 06:04:38;;;;;;;19.17;16.00;;;;;;;;;;5049941;28;20052;-72
2022/04/12 06:07:04;;;;;;;18.80;14.98;;;;;;;;;;5051573;28;20107;-71
2022/04/12 06:09:31;;;;;;;20.23;16.08;;;;;;;;;;5050224;28;20485;-71
2022/04/12 06:11:57;;;;;;;18.73;15.00;;;;;;;;;;5051636;28;20044;-71
2022/04/12 06:14:24;;;;;;;18.35;15.80;;;;;;;;;;5052105;28;20076;-72
2022/04/12 06:16:50;;;;;;;18.00;14.57;;;;;;;;;;5051629;28;20085;-72
2022/04/12 06:19:16;;;;;;;18.20;14.95;;;;;;;;;;5051648;28;20076;-72
2022/04/12 06:21:43;;;;;;;16.42;13.68;;;;;;;;;;5051752;28;20179;-72
2022/04/12 06:24:09;;;;;;;18.35;13.88;;;;;;;;;;5051177;28;20076;-77
2022/04/12 06:26:36;;;;;;;17.88;13.70;;;;;;;;;;5051621;28;20080;-72
2022/04/12 06:29:02;;;;;;;16.20;14.25;;;;;;;;;;5051193;28;20448;-72
2022/04/12 06:31:29;;;;;;;16.30;14.18;;;;;;;;;;5051572;28;20041;-73
2022/04/12 06:33:55;;;;;;;16.73;14.63;;;;;;;;;;5044583;28;20060;-75
2022/04/12 06:36:21;;;;;;;16.80;13.52;;;;;;;;;;5031352;28;20076;-75
2022/04/12 06:38:48;;;;;;;19.77;14.25;;;;;;;;;;5031212;28;20129;-75
2022/04/12 06:41:14;;;;;;;15.82;13.55;;;;;;;;;;5031322;28;20111;-73
2022/04/12 06:43:41;;;;;;;17.95;13.90;;;;;;;;;;5030732;28;20085;-72
2022/04/12 06:46:07;;;;;;;17.38;14.95;;;;;;;;;;5048663;28;20139;-77
2022/04/12 06:48:34;;;;;;;18.73;14.30;;;;;;;;;;5051149;28;20044;-71
2022/04/12 06:51:01;;;;;;;18.38;14.60;;;;;;;;;;5051428;28;20048;-72
2022/04/12 06:53:28;;;;;;;17.20;14.43;;;;;;;;;;5045829;28;20394;-71
2022/04/12 06:55:55;;;;;;;17.30;15.50;;;;;;;;;;5043001;28;20080;-71
2022/04/12 06:58:21;;;;;;;17.35;14.70;;;;;;;;;;5051171;28;20345;-70
2022/04/12 07:00:47;;;;;;;20.27;14.15;;;;;;;;;;5051068;28;20080;-70
2022/04/12 07:03:14;;;;;;;18.25;14.55;;;;;;;;;;5051213;28;20084;-70
2022/04/12 07:05:41;;;;;;;16.17;13.20;;;;;;;;;;5027288;28;20091;-70
2022/04/12 07:08:07;;;;;;;18.13;14.48;;;;;;;;;;5051324;28;20041;-70
2022/04/12 07:10:34;;;;;;;20.27;14.10;;;;;;;;;;5051237;28;20049;-70
2022/04/12 07:13:00;;;;;;;18.70;13.40;;;;;;;;;;5051138;28;20119;-69
2022/04/12 07:15:27;;;;;;;16.55;13.35;;;;;;;;;;5053133;28;20056;-70
2022/04/12 07:17:53;;;;;;;15.93;13.50;;;;;;;;;;5054805;28;20123;-70
2022/04/12 07:20:20;;;;;;;19.98;14.00;;;;;;;;;;5054405;28;20048;-70
2022/04/12 07:22:46;;;;;;;17.23;12.68;;;;;;;;;;5054335;28;20048;-69
2022/04/12 07:25:13;;;;;;;15.30;13.18;;;;;;;;;;5054573;28;20085;-70
2022/04/12 07:27:39;;;;;;;14.00;12.55;;;;;;;;;;5054335;28;20505;-70
2022/04/12 07:30:07;;;;;;;13.18;11.77;;;;;;;;;;5054550;28;20390;-70
2022/04/12 07:32:33;;;;;;;14.93;12.13;;;;;;;;;;5054646;28;20136;-70
2022/04/12 07:35:00;;;;;;;15.57;12.38;;;;;;;;;;5054455;28;20077;-70
2022/04/12 07:37:26;;;;;;;13.20;11.90;;;;;;;;;;5054472;28;20076;-70
2022/04/12 07:39:56;;;;;;;13.43;12.00;;;;;;;;;;5054145;28;20087;-70
2022/04/12 07:42:23;;;;;;;15.50;12.18;;;;;;;;;;5054111;28;20095;-70
2022/04/12 07:44:49;;;;;;;15.63;12.80;;;;;;;;;;5053976;28;20103;-67
2022/04/12 07:47:16;;;;;;;14.47;11.90;;;;;;;;;;5053939;28;20049;-66
2022/04/12 07:49:43;;;;;;;12.65;11.35;;;;;;;;;;5052574;28;20049;-66
2022/04/12 07:52:09;;;;;;;14.20;11.70;;;;;;;;;;5052587;28;20049;-66
2022/04/12 07:54:36;;;;;;;13.55;11.73;;;;;;;;;;5054083;28;20136;-66
2022/04/12 07:57:02;;;;;;;11.38;9.93;;;;;;;;;;5053804;28;20592;-66
2022/04/12 07:59:29;;;;;;;12.85;10.48;;;;;;;;;;5054270;28;20088;-67
2022/04/12 08:01:55;;;;;;;13.02;10.15;;;;;;;;;;5053901;28;20085;-66
2022/04/12 08:04:21;;;;;;;10.95;9.85;;;;;;;;;;5053113;28;20492;-66
2022/04/12 08:06:48;;;;;;;11.10;9.38;;;;;;;;;;5052279;28;20136;-67
2022/04/12 08:09:14;;;;;;;14.75;9.50;;;;;;;;;;5053621;28;20041;-66
2022/04/12 08:11:41;;;;;;;12.82;9.13;;;;;;;;;;5053836;28;20485;-67
2022/04/12 08:14:07;;;;;;;13.50;9.65;;;;;;;;;;5053731;28;20076;-66
2022/04/12 08:16:34;;;;;;;12.35;9.10;;;;;;;;;;5053385;28;20095;-66
2022/04/12 08:19:00;;;;;;;9.98;8.38;;;;;;;;;;5053636;28;20073;-66
2022/04/12 08:21:31;;;;;;;11.20;8.48;;;;;;;;;;5053587;28;20053;-66
2022/04/12 08:23:58;;;;;;;10.50;8.80;;;;;;;;;;5053128;28;20045;-66
2022/04/12 08:26:24;;;;;;;10.27;7.80;;;;;;;;;;5052643;28;20045;-66
2022/04/12 08:28:51;;;;;;;10.30;8.80;;;;;;;;;;5053472;28;20095;-67
2022/04/12 08:31:17;;;;;;;10.85;8.70;;;;;;;;;;5053115;28;20045;-66
2022/04/12 08:33:44;;;;;;;10.23;8.50;;;;;;;;;;5053377;28;20064;-66
2022/04/12 08:36:10;;;;;;;11.77;9.23;;;;;;;;;;5053278;28;20087;-66
2022/04/12 08:38:37;;;;;;;9.80;8.68;;;;;;;;;;5053327;28;20103;-66
2022/04/12 08:41:03;;;;;;;9.13;8.07;;;;;;;;;;5053221;28;20135;-66
2022/04/12 08:43:30;;;;;;;10.07;9.05;;;;;;;;;;5053139;28;20458;-66
2022/04/12 08:45:57;;;;;;;9.27;8.18;;;;;;;;;;5052596;28;20063;-66
2022/04/12 08:48:24;;;;;;;10.98;9.13;;;;;;;;;;5052821;28;20071;-66
2022/04/12 08:50:52;;;;;;;11.48;8.77;;;;;;;;;;5052779;28;20041;-66
2022/04/12 08:53:19;;;;;;;10.23;8.30;;;;;;;;;;5052699;28;20114;-66
2022/04/12 08:55:45;;;;;;;9.20;7.65;;;;;;;;;;5052995;28;20119;-66
2022/04/12 08:58:12;;;;;;;8.93;7.57;;;;;;;;;;5052601;28;20081;-66
2022/04/12 09:00:38;;;;;;;10.00;7.63;;;;;;;;;;5052809;28;20049;-66
2022/04/12 09:03:05;;;;;;;8.15;7.20;;;;;;;;;;5053159;28;20071;-66
2022/04/12 09:05:34;;;;;;;8.48;4.80;;;;;;;;;;5051865;28;20075;-66
2022/04/12 09:08:00;;;;;;;9.98;4.68;;;;;;;;;;5052771;28;20106;-66
2022/04/12 09:10:34;;;;;;;8.07;4.55;;;;;;;;;;5052256;28;20091;-66
2022/04/12 09:13:10;;;;;;;11.60;4.82;;;;;;;;;;5052669;28;20087;-66
2022/04/12 09:15:44;;;;;;;7.82;4.05;;;;;;;;;;5052564;28;20190;-66
2022/04/12 09:18:33;;;;;;;8.88;4.15;;;;;;;;;;5052244;28;20045;-66
2022/04/12 09:21:16;;;;;;;7.32;4.20;;;;;;;;;;5052164;28;20073;-66
2022/04/12 09:23:46;;;;;;;5.72;4.32;;;;;;;;;;5052128;28;20079;-66
2022/04/12 09:26:26;;;;;;;8.75;4.43;;;;;;;;;;5052460;28;20041;-66
2022/04/12 09:28:53;;;;;;;14.48;4.82;;;;;;;;;;5052396;28;20079;-66
2022/04/12 09:31:21;;;;;;;7.70;4.55;;;;;;;;;;5052324;28;20041;-66
2022/04/12 09:33:48;;;;;;;9.55;5.28;;;;;;;;;;5051956;28;20080;-66
2022/04/12 09:36:15;;;;;;;9.43;5.17;;;;;;;;;;5051956;28;20053;-66
2022/04/12 09:38:42;;;;;;;10.52;5.65;;;;;;;;;;5051866;28;20081;-66
2022/04/12 09:41:12;;;;;;;9.52;5.30;;;;;;;;;;5052129;28;20068;-66
2022/04/12 09:44:12;;;;;;;8.63;5.30;;;;;;;;;;5052144;28;20041;-66
2022/04/12 09:46:39;;;;;;;12.63;6.22;;;;;;;;;;5051731;28;20053;-66
2022/04/12 09:49:06;;;;;;;12.13;5.63;;;;;;;;;;5052105;28;20087;-66
2022/04/12 09:51:36;;;;;;;14.63;6.53;;;;;;;;;;5051692;28;20332;-66
2022/04/12 09:54:03;;;;;;;11.93;5.95;;;;;;;;;;5050830;28;20077;-66
2022/04/12 09:56:30;;;;;;;15.83;7.17;;;;;;;;;;5051729;28;20493;-66
2022/04/12 09:58:57;;;;;;;11.88;6.72;;;;;;;;;;5051829;28;20150;-66
2022/04/12 10:01:24;;;;;;;10.68;6.32;;;;;;;;;;5051676;28;20095;-66
2022/04/12 10:03:58;;;;;;;15.70;7.10;;;;;;;;;;5049522;28;20080;-66
2022/04/12 10:06:25;;;;;;;11.63;6.78;;;;;;;;;;5052144;28;20132;-66
2022/04/12 10:08:53;;;;;;;13.52;7.00;;;;;;;;;;5051798;28;20068;-66
2022/04/12 10:11:19;;;;;;;;;;;;;;;;;;5052090;28;20068;-66
2022/04/12 10:13:46;;;;;;;13.07;6.78;;;;;;;;;;5051399;28;19921;-66
2022/04/12 10:16:14;;;;;;;17.00;7.20;;;;;;;;;;5051460;28;20076;-66
2022/04/12 10:18:41;;;;;;;15.65;7.15;;;;;;;;;;5051449;28;20049;-66
2022/04/12 10:21:08;;;;;;;13.93;6.22;;;;;;;;;;5051682;28;20052;-66
2022/04/12 10:23:35;;;;;;;18.58;7.72;;;;;;;;;;5051269;28;20485;-66
2022/04/12 10:26:02;;;;;;;13.88;7.13;;;;;;;;;;5051286;28;20041;-66
2022/04/12 10:28:29;;;;;;;17.63;6.97;;;;;;;;;;5051588;28;20079;-66
2022/04/12 10:31:03;;;;;;;18.77;7.13;;;;;;;;;;5051495;28;20045;-67
2022/04/12 10:34:10;;;;;;;12.30;6.43;;;;;;;;;;5051623;28;20377;-66
2022/04/12 10:36:56;;;;;;;14.10;6.55;;;;;;;;;;5051676;28;20518;-66
2022/04/12 10:39:46;;;;;;;17.77;7.00;;;;;;;;;;5051166;28;20388;-66
2022/04/12 10:42:17;;;;;;;26.02;6.88;;;;;;;;;;5051243;28;20076;-66
2022/04/12 10:44:45;;;;;;;17.85;7.05;;;;;;;;;;5051239;28;20077;-67
2022/04/12 10:47:31;;;;;;;14.48;6.43;;;;;;;;;;5051130;28;20091;-67
2022/04/12 10:50:04;;;;;;;16.95;6.63;;;;;;;;;;5052508;28;20084;-66
2022/04/12 10:52:32;;;;;;;14.13;6.85;;;;;;;;;;5053944;28;20095;-67
2022/04/12 10:54:59;;;;;;;12.50;6.40;;;;;;;;;;5054844;28;20088;-67
2022/04/12 10:57:26;;;;;;;19.08;7.00;;;;;;;;;;5054036;28;20088;-67
2022/04/12 11:00:12;;;;;;;15.45;7.28;;;;;;;;;;5055060;28;20206;-69
2022/04/12 11:02:44;;;;;;;17.02;7.32;;;;;;;;;;5055117;28;20049;-69
2022/04/12 11:05:30;;;;;;;12.98;6.47;;;;;;;;;;5053973;28;20128;-69
2022/04/12 11:07:56;;;;;;;20.30;7.28;;;;;;;;;;5055224;28;20448;-67
2022/04/12 11:10:22;;;;;;;17.75;7.13;;;;;;;;;;5054844;28;20084;-67
2022/04/12 11:12:50;;;;;;;12.68;6.50;;;;;;;;;;5054626;28;20099;-67
2022/04/12 11:15:24;;;;;;;15.23;5.97;;;;;;;;;;5054884;28;20048;-67
2022/04/12 11:18:05;;;;;;;19.95;6.85;;;;;;;;;;5054655;28;20084;-67
2022/04/12 11:20:32;;;;;;;15.85;6.50;;;;;;;;;;5054766;28;20457;-67
2022/04/12 11:22:59;;;;;;;15.30;6.70;;;;;;;;;;5054412;28;20099;-68
2022/04/12 11:25:26;;;;;;;17.30;6.20;;;;;;;;;;5053462;28;20088;-68
2022/04/12 11:27:59;;;;;;;20.02;6.90;;;;;;;;;;5054612;28;20449;-68
2022/04/12 11:30:26;;;;;;;13.48;6.45;;;;;;;;;;5054897;28;20076;-68
2022/04/12 11:32:56;;;;;;;10.85;5.63;;;;;;;;;;5054553;28;20068;-68
2022/04/12 11:35:23;;;;;;;15.75;6.30;;;;;;;;;;5054684;28;20136;-68
2022/04/12 11:37:50;;;;;;;18.42;6.55;;;;;;;;;;5054256;28;20084;-68
2022/04/12 11:40:16;;;;;;;13.18;5.70;;;;;;;;;;5054504;28;20056;-68
2022/04/12 11:42:45;;;;;;;13.85;6.63;;;;;;;;;;5054077;28;20497;-69
2022/04/12 11:45:12;;;;;;;15.48;6.22;;;;;;;;;;5053932;28;20068;-69
2022/04/12 11:47:43;;;;;;;16.90;5.70;;;;;;;;;;5053828;28;20092;-70
2022/04/12 11:50:14;;;;;;;10.98;5.70;;;;;;;;;;5053933;28;20527;-70
2022/04/12 11:52:41;;;;;;;10.70;5.75;;;;;;;;;;5052783;28;20080;-70
2022/04/12 11:55:07;;;;;;;16.30;5.82;;;;;;;;;;5054309;28;20107;-70
2022/04/12 11:57:40;;;;;;;13.50;6.40;;;;;;;;;;5053867;28;20091;-70
2022/04/12 12:00:08;;;;;;;15.60;6.37;;;;;;;;;;5053995;28;20088;-70
2022/04/12 12:02:36;;;;;;;16.23;5.93;;;;;;;;;;5052644;28;20057;-70
2022/04/12 12:05:04;;;;;;;11.45;5.25;;;;;;;;;;5053120;28;20087;-70
2022/04/12 12:07:35;;;;;;;13.93;6.00;;;;;;;;;;5053676;28;20087;-70
2022/04/12 12:10:09;;;;;;;16.92;5.72;;;;;;;;;;5052722;28;20142;-70
2022/04/12 12:12:37;;;;;;;14.55;5.70;;;;;;;;;;5053856;28;20049;-70
2022/04/12 12:15:12;;;;;;;14.07;6.30;;;;;;;;;;5053825;28;20088;-69
2022/04/12 12:17:39;;;;;;;17.25;6.82;;;;;;;;;;5053539;28;20099;-69
2022/04/12 12:20:07;;;;;;;14.10;6.47;;;;;;;;;;5053663;28;20081;-70
2022/04/12 12:22:33;;;;;;;;;;;;;;;;;;5053961;28;20458;-70
2022/04/12 12:25:00;;;;;;;11.73;6.50;;;;;;;;;;5053238;28;19963;-70
2022/04/12 12:27:26;;;;;;;13.57;5.75;;;;;;;;;;5053218;28;20045;-70
2022/04/12 12:29:57;;;;;;;11.18;5.30;;;;;;;;;;5053640;28;20048;-70
2022/04/12 12:32:24;;;;;;;14.95;6.15;;;;;;;;;;5053171;28;20406;-70
2022/04/12 12:34:50;;;;;;;10.82;4.97;;;;;;;;;;5053024;28;20499;-70
2022/04/12 12:37:17;;;;;;;14.07;5.55;;;;;;;;;;5053302;28;20084;-70
2022/04/12 12:39:43;;;;;;;13.02;5.47;;;;;;;;;;5052883;28;20558;-70
2022/04/12 12:42:10;;;;;;;16.95;5.82;;;;;;;;;;5052168;28;20091;-70
2022/04/12 12:44:36;;;;;;;14.95;5.55;;;;;;;;;;5051854;28;20045;-70
2022/04/12 12:47:04;;;;;;;12.40;5.07;;;;;;;;;;5052718;28;20057;-70
2022/04/12 12:49:35;;;;;;;12.90;5.45;;;;;;;;;;5053049;28;20134;-70
2022/04/12 12:52:09;;;;;;;14.98;5.93;;;;;;;;;;5051634;28;20544;-70
2022/04/12 12:54:36;;;;;;;14.05;6.65;;;;;;;;;;5053028;28;20453;-70
2022/04/12 12:57:05;;;;;;;15.93;5.95;;;;;;;;;;5052971;28;20072;-70
2022/04/12 12:59:32;;;;;;;13.18;5.93;;;;;;;;;;5052931;28;20106;-70
2022/04/12 13:02:10;;;;;;;14.20;5.93;;;;;;;;;;5052856;28;20095;-70
2022/04/12 13:04:36;;;;;;;;;;;;;;;;;;5051250;28;20124;-70
2022/04/12 13:07:04;;;;;;;13.10;6.43;;;;;;;;;;5051246;28;20023;-70
2022/04/12 13:09:32;;;;;;;11.60;5.85;;;;;;;;;;5051504;28;20049;-70
2022/04/12 13:11:59;;;;;;;17.80;6.93;;;;;;;;;;5052212;28;20053;-70
2022/04/12 13:14:25;;;;;;;14.43;6.80;;;;;;;;;;5052535;28;20048;-70
2022/04/12 13:16:52;;;;;;;15.85;6.70;;;;;;;;;;5052620;28;20096;-70
2022/04/12 13:19:25;;;;;;;16.27;6.22;;;;;;;;;;5052357;28;20045;-70
2022/04/12 13:21:51;;;;;;;12.90;5.80;;;;;;;;;;5052481;28;20088;-70
2022/04/12 13:24:18;;;;;;;10.07;5.70;;;;;;;;;;5051036;28;20081;-70
2022/04/12 13:26:44;;;;;;;17.98;6.65;;;;;;;;;;5052181;28;20053;-70
2022/04/12 13:29:11;;;;;;;13.65;6.32;;;;;;;;;;5052015;28;20045;-70
2022/04/12 13:31:37;;;;;;;13.05;6.50;;;;;;;;;;5051159;28;20095;-70
2022/04/12 13:34:05;;;;;;;15.13;6.82;;;;;;;;;;5052300;28;20077;-70
2022/04/12 13:36:31;;;;;;;19.45;7.18;;;;;;;;;;5052296;28;20081;-70
2022/04/12 13:38:57;;;;;;;17.73;6.72;;;;;;;;;;5052300;28;20442;-70
2022/04/12 13:41:24;;;;;;;14.27;6.95;;;;;;;;;;5051858;28;20088;-70
2022/04/12 13:43:50;;;;;;;14.52;7.40;;;;;;;;;;5051846;28;20560;-70
2022/04/12 13:46:17;;;;;;;14.93;7.60;;;;;;;;;;5051731;28;20055;-70
2022/04/12 13:48:43;;;;;;;19.10;8.70;;;;;;;;;;5051710;28;20044;-70
2022/04/12 13:51:11;;;;;;;19.70;8.55;;;;;;;;;;5051911;28;20052;-70
2022/04/12 13:53:38;;;;;;;18.77;8.68;;;;;;;;;;5050653;28;20049;-70
2022/04/12 13:56:05;;;;;;;17.30;8.85;;;;;;;;;;5051690;28;20084;-70
2022/04/12 13:58:31;;;;;;;18.13;9.27;;;;;;;;;;5051857;28;20080;-69
2022/04/12 14:01:00;;;;;;;21.45;8.98;;;;;;;;;;5051847;28;20049;-69
2022/04/12 14:03:27;;;;;;;19.60;9.18;;;;;;;;;;5051159;28;20056;-69
2022/04/12 14:05:53;;;;;;;19.60;9.27;;;;;;;;;;5050244;28;20076;-70
2022/04/12 14:08:20;;;;;;;24.13;10.80;;;;;;;;;;5051519;28;20310;-70
2022/04/12 14:10:46;;;;;;;19.42;10.02;;;;;;;;;;5051693;28;20095;-70
2022/04/12 14:13:13;;;;;;;23.35;9.75;;;;;;;;;;5051770;28;20106;-70
2022/04/12 14:15:39;;;;;;;23.17;10.75;;;;;;;;;;5051373;28;20095;-70
2022/04/12 14:18:05;;;;;;;21.98;10.38;;;;;;;;;;5051730;28;20084;-70
2022/04/12 14:20:34;;;;;;;20.63;10.68;;;;;;;;;;5051380;28;20049;-70
2022/04/12 14:23:00;;;;;;;19.77;10.18;;;;;;;;;;5051730;28;20087;-70
2022/04/12 14:25:27;;;;;;;22.38;10.98;;;;;;;;;;5053730;28;20080;-70
2022/04/12 14:27:53;;;;;;;20.65;9.13;;;;;;;;;;5055757;28;20068;-70
2022/04/12 14:30:20;;;;;;;21.10;9.47;;;;;;;;;;5055689;28;20069;-70
2022/04/12 14:32:46;;;;;;;18.33;9.05;;;;;;;;;;5055194;28;20552;-70